»·PEaware :: SKW5960 KSFO-KSNA

SKW5960 :: KSFO-KSNA

FLIGHT INFORMATION

Flight Status: Arrived
Operator:
SkyWest Airlines
More flights by this operator :: More flights under this callsign
Pilot: Anonymous 10623 (10623)
Aircraft: BRITISH AERO BAe-146-100 STATESMAN
(B461)
More flights by this aircraft type
Origin: KSFO San Francisco Intl
United States
Destination: KSNA John Wayne-Orange Co
United States
More flights between these airports :: More routes between these airports
Route: OFFSH2 MCKEY TILLT TILLT2
File this flight plan on PilotEdge
Remarks:
Altitude:
(Current/Filed)
23,000ft
Speed:
(Current/Filed)
394kts
Departed: 01-Dec-20 02:38 PM
Arrived: 01-Dec-20 03:57 PM
Distance/Time
Traveled:
323nm/1:19
Distance/Time
To Go:
Arrived

Flight Plot

Page will automatically refresh every two minutes.

Flight plan parsing failed; only flown route is shown


Map Options




Map Legend


Flown Route
Filed Route
Departure Airport
Arrival Airport
Navaid (VOR, NDB)
Fix

Horizontal Profiles

Position Reports

Time Latitude Longitude Heading Altitude Ground
Speed
01-Dec-20 14:03 37.613354 -122.383656 211 21ft 0kts
01-Dec-20 14:04 37.613354 -122.383656 211 21ft 0kts
01-Dec-20 14:05 37.613354 -122.383656 211 21ft 0kts
01-Dec-20 14:06 37.613354 -122.383656 211 21ft 0kts
01-Dec-20 14:07 37.613354 -122.383656 211 21ft 0kts
01-Dec-20 14:08 37.613354 -122.383656 211 21ft 0kts
01-Dec-20 14:09 37.613354 -122.383656 211 21ft 0kts
01-Dec-20 14:10 37.613354 -122.383656 211 21ft 0kts
01-Dec-20 14:11 37.613354 -122.383656 211 21ft 0kts
01-Dec-20 14:12 37.613354 -122.383656 211 21ft 0kts
01-Dec-20 14:13 37.613354 -122.383656 211 21ft 0kts
01-Dec-20 14:14 37.613354 -122.383656 211 21ft 0kts
01-Dec-20 14:15 37.613354 -122.383656 211 21ft 0kts
01-Dec-20 14:16 37.613354 -122.383656 211 21ft 0kts
01-Dec-20 14:17 37.613354 -122.383656 211 21ft 0kts
01-Dec-20 14:18 37.613354 -122.383656 211 21ft 0kts
01-Dec-20 14:19 37.613354 -122.383656 211 21ft 0kts
01-Dec-20 14:20 37.613354 -122.383656 211 21ft 0kts
01-Dec-20 14:21 37.613354 -122.383656 211 21ft 0kts
01-Dec-20 14:22 37.613354 -122.383656 211 21ft 0kts
01-Dec-20 14:23 37.613591 -122.383488 205 21ft 2kts
01-Dec-20 14:24 37.614032 -122.383597 117 21ft 0kts
01-Dec-20 14:25 37.614032 -122.383597 117 21ft 0kts
01-Dec-20 14:26 37.614032 -122.383597 117 21ft 0kts
01-Dec-20 14:27 37.614032 -122.383597 117 21ft 0kts
01-Dec-20 14:28 37.614032 -122.383597 117 21ft 0kts
01-Dec-20 14:29 37.614032 -122.383596 117 21ft 0kts
01-Dec-20 14:30 37.614031 -122.383593 117 21ft 0kts
01-Dec-20 14:31 37.613982 -122.383462 114 21ft 4kts
01-Dec-20 14:32 37.613628 -122.382589 119 21ft 1kts
01-Dec-20 14:33 37.611351 -122.383124 204 21ft 16kts
01-Dec-20 14:34 37.609369 -122.383341 116 21ft 0kts
01-Dec-20 14:35 37.609368 -122.383338 116 21ft 0kts
01-Dec-20 14:36 37.609120 -122.382080 41 21ft 7kts
01-Dec-20 14:38 37.630914 -122.368440 22 709ft 151kts
01-Dec-20 14:39 37.683893 -122.368322 4 2500ft 226kts
01-Dec-20 14:40 37.730728 -122.420327 260 5648ft 267kts
01-Dec-20 14:41 37.682419 -122.484932 220 7109ft 233kts
01-Dec-20 14:42 37.625394 -122.537132 216 8806ft 261kts
01-Dec-20 14:43 37.565477 -122.587611 216 10732ft 263kts
01-Dec-20 14:44 37.496381 -122.645892 216 11574ft 331kts
01-Dec-20 14:45 37.442005 -122.735825 218 13522ft 333kts
01-Dec-20 14:46 37.350437 -122.737068 153 15131ft 352kts
01-Dec-20 14:47 37.268235 -122.668792 155 16719ft 358kts
01-Dec-20 14:48 37.171809 -122.634348 170 18302ft 365kts
01-Dec-20 14:49 37.070770 -122.610805 170 19787ft 372kts
01-Dec-20 14:50 36.968290 -122.584321 169 21235ft 378kts
01-Dec-20 14:51 36.864706 -122.557283 170 22628ft 384kts
01-Dec-20 14:52 36.758161 -122.529603 169 23203ft 400kts
01-Dec-20 14:53 36.647423 -122.500382 169 23190ft 410kts
01-Dec-20 14:54 36.537085 -122.471617 169 23191ft 398kts
01-Dec-20 14:55 36.430496 -122.439028 156 23191ft 395kts
01-Dec-20 14:56 36.348084 -122.350990 128 23194ft 394kts
01-Dec-20 14:56 36.291702 -122.262265 128 23192ft 392kts
01-Dec-20 14:58 36.209293 -122.142619 131 23194ft 390kts
01-Dec-20 14:58 36.149583 -122.058153 130 23193ft 389kts
01-Dec-20 14:59 36.078858 -121.956850 130 23193ft 388kts
01-Dec-20 15:00 36.007552 -121.854672 130 23192ft 401kts
01-Dec-20 15:01 35.932932 -121.747690 130 23184ft 420kts
01-Dec-20 15:02 35.855931 -121.636998 130 23182ft 431kts
01-Dec-20 15:03 35.777774 -121.524534 130 23180ft 426kts
01-Dec-20 15:04 35.701470 -121.414833 130 23178ft 416kts
01-Dec-20 15:05 35.627088 -121.307571 130 23153ft 407kts
01-Dec-20 15:06 35.554271 -121.202502 130 23147ft 402kts
01-Dec-20 15:07 35.482809 -121.098323 125 23141ft 398kts
01-Dec-20 15:08 35.442126 -120.975717 133 23142ft 392kts
01-Dec-20 15:09 35.349703 -120.907510 151 23130ft 388kts
01-Dec-20 15:10 35.260499 -120.833032 142 23118ft 390kts
01-Dec-20 15:11 35.174482 -120.749392 142 23104ft 398kts
01-Dec-20 15:12 35.086494 -120.665337 142 23102ft 405kts
01-Dec-20 15:13 34.996587 -120.580028 142 23099ft 412kts
01-Dec-20 15:14 34.905296 -120.493519 142 23095ft 420kts
01-Dec-20 15:15 34.812351 -120.404998 142 23097ft 426kts
01-Dec-20 15:16 34.718740 -120.315543 142 23105ft 427kts
01-Dec-20 15:17 34.623833 -120.231888 147 23103ft 415kts
01-Dec-20 15:18 34.528374 -120.158253 147 23098ft 401kts
01-Dec-20 15:19 34.435002 -120.085098 147 23103ft 398kts
01-Dec-20 15:20 34.342490 -120.011448 147 23112ft 397kts
01-Dec-20 15:21 34.250259 -119.938092 147 23115ft 396kts
01-Dec-20 15:22 34.158459 -119.865175 147 23113ft 395kts
01-Dec-20 15:23 34.068861 -119.788227 135 23108ft 394kts
01-Dec-20 15:24 34.008156 -119.679916 117 23104ft 391kts
01-Dec-20 15:25 33.954720 -119.565151 119 23096ft 391kts
01-Dec-20 15:26 33.898125 -119.452061 120 22189ft 393kts
01-Dec-20 15:27 33.842575 -119.340452 119 20874ft 385kts
01-Dec-20 15:28 33.788151 -119.230632 119 19116ft 376kts
01-Dec-20 15:29 33.735214 -119.123659 119 17260ft 367kts
01-Dec-20 15:30 33.685265 -119.023400 118 14164ft 373kts
01-Dec-20 15:31 33.634549 -118.921816 118 13155ft 342kts
01-Dec-20 15:32 33.586556 -118.824202 118 11725ft 335kts
01-Dec-20 15:33 33.553535 -118.723228 99 10462ft 318kts
01-Dec-20 15:34 33.539337 -118.622832 98 9316ft 298kts
01-Dec-20 15:35 33.524436 -118.526062 99 7938ft 291kts
01-Dec-20 15:36 33.514020 -118.431459 91 6722ft 283kts
01-Dec-20 15:37 33.514876 -118.338686 78 5555ft 275kts
01-Dec-20 15:38 33.539004 -118.254160 68 5018ft 255kts
01-Dec-20 15:39 33.565419 -118.180897 60 5013ft 234kts
01-Dec-20 15:40 33.601075 -118.115687 56 5008ft 238kts
01-Dec-20 15:41 33.637839 -118.049295 56 5005ft 244kts
01-Dec-20 15:42 33.687977 -117.993534 31 4691ft 250kts
01-Dec-20 15:43 33.747866 -117.952065 30 3913ft 247kts
01-Dec-20 15:44 33.806554 -117.911935 30 3041ft 246kts
01-Dec-20 15:45 33.861865 -117.874376 30 3013ft 191kts
01-Dec-20 15:46 33.901051 -117.848286 30 2985ft 143kts
01-Dec-20 15:47 33.938157 -117.823646 30 3032ft 181kts
01-Dec-20 15:48 33.961890 -117.778546 105 3032ft 177kts
01-Dec-20 15:49 33.939150 -117.727193 154 2983ft 181kts
01-Dec-20 15:50 33.889262 -117.733237 193 3001ft 185kts
01-Dec-20 15:51 33.842582 -117.759924 211 2996ft 187kts
01-Dec-20 15:52 33.799623 -117.791084 206 2716ft 169kts
01-Dec-20 15:53 33.758475 -117.816218 206 1782ft 157kts
01-Dec-20 15:54 33.723602 -117.838543 206 1017ft 124kts
01-Dec-20 15:55 33.694057 -117.857252 207 347ft 113kts
01-Dec-20 15:56 33.671188 -117.871668 208 65ft 38kts
01-Dec-20 15:57 33.669688 -117.870314 32 64ft 11kts
01-Dec-20 15:58 33.672399 -117.867947 34 64ft 15kts
01-Dec-20 15:59 33.676328 -117.865057 30 64ft 16kts
01-Dec-20 16:00 33.680150 -117.862676 26 64ft 14kts
01-Dec-20 16:01 33.680756 -117.861573 139 65ft 1kts
01-Dec-20 16:02 33.680692 -117.861507 139 64ft 0kts
01-Dec-20 16:03 33.680692 -117.861507 139 64ft 0kts
01-Dec-20 16:04 33.680692 -117.861507 139 64ft 0kts

Navigation Log

Ident Type
Flight plan parsing failed, navigation log unavailable